createdAt,value
2023-02-11T00:00:41.329Z,99.90
2023-02-11T00:03:09.768Z,99.90
2023-02-11T00:05:37.986Z,99.90
2023-02-11T00:08:06.216Z,99.90
2023-02-11T00:10:34.275Z,99.90
2023-02-11T00:13:03.712Z,99.90
2023-02-11T00:15:31.598Z,99.90
2023-02-11T00:17:59.644Z,99.90
2023-02-11T00:20:27.677Z,99.90
2023-02-11T00:22:55.780Z,99.90
2023-02-11T00:25:23.872Z,99.90
2023-02-11T00:27:51.908Z,99.90
2023-02-11T00:30:21.507Z,1.00
2023-02-11T00:32:49.563Z,1.00
2023-02-11T00:35:17.836Z,1.00
2023-02-11T00:37:45.910Z,1.00
2023-02-11T00:40:15.971Z,1.00
2023-02-11T00:42:44.058Z,1.00
2023-02-11T00:45:13.535Z,1.00
2023-02-11T00:47:42.951Z,1.00
2023-02-11T00:50:11.070Z,1.00
2023-02-11T00:52:39.116Z,1.00
2023-02-11T00:55:08.071Z,1.00
2023-02-11T00:57:36.169Z,1.00
2023-02-11T01:00:04.899Z,1.00
2023-02-11T01:02:33.048Z,1.00
2023-02-11T01:05:03.445Z,1.00
2023-02-11T01:07:32.289Z,1.00
2023-02-11T01:10:00.534Z,1.00
2023-02-11T01:12:28.607Z,1.00
2023-02-11T01:14:56.739Z,1.00
2023-02-11T01:17:24.771Z,1.00
2023-02-11T01:19:52.833Z,1.00
2023-02-11T01:22:24.266Z,1.00
2023-02-11T01:24:52.356Z,1.00
2023-02-11T01:27:20.408Z,1.00
2023-02-11T01:29:48.452Z,1.00
2023-02-11T01:32:16.547Z,1.00
2023-02-11T01:34:44.650Z,1.00
2023-02-11T01:37:12.719Z,1.00
2023-02-11T01:39:42.139Z,1.00
2023-02-11T01:42:11.809Z,1.00
2023-02-11T01:44:40.372Z,1.00
2023-02-11T01:47:08.664Z,1.00
2023-02-11T01:49:39.516Z,1.00
2023-02-11T01:52:13.176Z,1.00
2023-02-11T01:55:14.220Z,1.00
2023-02-11T01:57:46.525Z,1.00
2023-02-11T02:00:20.329Z,1.00
2023-02-11T02:03:02.037Z,1.00
2023-02-11T02:05:36.686Z,1.00
2023-02-11T02:08:11.926Z,1.00
2023-02-11T02:10:44.153Z,1.00
2023-02-11T02:13:12.659Z,1.00
2023-02-11T02:15:45.217Z,1.00
2023-02-11T02:18:29.976Z,1.00
2023-02-11T02:21:30.634Z,1.00
2023-02-11T02:24:20.112Z,1.00
2023-02-11T02:27:21.881Z,99.90
2023-02-11T02:30:50.091Z,99.90
2023-02-11T02:33:38.839Z,99.90
2023-02-11T02:36:19.289Z,99.90
2023-02-11T02:38:53.917Z,99.90
2023-02-11T02:41:25.451Z,99.90
2023-02-11T02:43:54.496Z,99.90
2023-02-11T02:46:24.453Z,99.90
2023-02-11T02:48:55.298Z,99.90
2023-02-11T02:51:58.450Z,99.90
2023-02-11T02:54:48.054Z,99.90
2023-02-11T02:57:30.562Z,99.90
2023-02-11T03:00:08.725Z,99.90
2023-02-11T03:02:46.103Z,99.90
2023-02-11T03:05:18.498Z,99.90
2023-02-11T03:07:53.400Z,99.90
2023-02-11T03:10:26.446Z,99.90
2023-02-11T03:12:56.146Z,99.90
2023-02-11T03:15:27.453Z,99.90
2023-02-11T03:17:59.711Z,99.90
2023-02-11T03:20:32.704Z,99.90
2023-02-11T03:23:08.522Z,99.90
2023-02-11T03:25:42.321Z,99.90
2023-02-11T03:28:17.197Z,99.90
2023-02-11T03:30:50.372Z,99.90
2023-02-11T03:33:25.164Z,99.90
2023-02-11T03:35:59.225Z,99.90
2023-02-11T03:38:32.642Z,99.90
2023-02-11T03:41:03.597Z,99.90
2023-02-11T03:43:35.634Z,99.90
2023-02-11T03:46:04.707Z,99.90
2023-02-11T03:48:37.053Z,99.90
2023-02-11T03:51:09.043Z,99.90
2023-02-11T03:53:39.621Z,99.90
2023-02-11T03:56:11.719Z,99.90
2023-02-11T03:58:39.822Z,99.90
2023-02-11T04:01:09.864Z,99.90
2023-02-11T04:03:38.091Z,99.90
2023-02-11T04:06:07.960Z,99.90
2023-02-11T04:08:36.308Z,99.90
2023-02-11T04:11:04.378Z,99.90
2023-02-11T04:13:32.487Z,99.90
2023-02-11T04:16:00.561Z,99.90
2023-02-11T04:18:28.687Z,99.90
2023-02-11T04:20:56.740Z,99.90
2023-02-11T04:23:26.229Z,99.90
2023-02-11T04:25:54.310Z,99.90
2023-02-11T04:28:22.434Z,99.90
2023-02-11T04:30:51.542Z,99.90
2023-02-11T04:33:19.649Z,99.90
2023-02-11T04:35:47.785Z,99.90
2023-02-11T04:38:15.971Z,99.90
2023-02-11T04:40:45.444Z,99.90
2023-02-11T04:43:13.534Z,99.90
2023-02-11T04:45:41.633Z,99.90
2023-02-11T04:48:09.765Z,99.90
2023-02-11T04:50:37.890Z,99.90
2023-02-11T04:53:05.963Z,99.90
2023-02-11T04:55:34.020Z,99.90
2023-02-11T04:58:03.444Z,99.90
2023-02-11T05:00:31.309Z,99.90
2023-02-11T05:03:00.532Z,99.90
2023-02-11T05:05:28.629Z,99.90
2023-02-11T05:07:56.688Z,99.90
2023-02-11T05:10:24.760Z,99.90
2023-02-11T05:12:55.408Z,99.90
2023-02-11T05:15:25.350Z,99.90
2023-02-11T05:17:53.764Z,99.90
2023-02-11T05:20:21.892Z,99.90
2023-02-11T05:22:49.976Z,99.90
2023-02-11T05:25:18.561Z,99.90
2023-02-11T05:27:46.588Z,99.90
2023-02-11T05:30:15.131Z,99.90
2023-02-11T05:32:44.551Z,99.90
2023-02-11T05:35:12.540Z,99.90
2023-02-11T05:37:40.902Z,99.90
2023-02-11T05:40:09.652Z,99.90
2023-02-11T05:42:37.717Z,99.90
2023-02-11T05:45:06.550Z,99.90
2023-02-11T05:47:34.638Z,99.90
2023-02-11T05:50:04.101Z,99.90
2023-02-11T05:52:32.008Z,99.90
2023-02-11T05:55:00.299Z,99.90
2023-02-11T05:57:28.512Z,99.90
2023-02-11T05:59:56.569Z,99.90
2023-02-11T06:02:24.704Z,99.90
2023-02-11T06:04:52.833Z,99.90
2023-02-11T06:07:22.298Z,99.90
2023-02-11T06:09:50.145Z,99.90
2023-02-11T06:12:18.216Z,99.90
2023-02-11T06:14:46.267Z,99.90
2023-02-11T06:17:15.710Z,99.90
2023-02-11T06:19:43.983Z,99.90
2023-02-11T06:22:12.399Z,99.90
2023-02-11T06:25:00.243Z,99.90
2023-02-11T06:27:29.297Z,99.90
2023-02-11T06:29:57.385Z,99.90
2023-02-11T06:32:42.843Z,99.90
2023-02-11T06:35:12.411Z,99.90
2023-02-11T06:37:40.948Z,99.90
2023-02-11T06:40:10.739Z,99.90
2023-02-11T06:42:39.567Z,99.90
2023-02-11T06:45:09.333Z,99.90
2023-02-11T06:47:37.622Z,99.90
2023-02-11T06:50:06.493Z,99.90
2023-02-11T06:52:34.552Z,99.90
2023-02-11T06:55:02.669Z,99.90
2023-02-11T06:57:33.324Z,99.90
2023-02-11T07:00:01.398Z,99.90
2023-02-11T07:02:29.494Z,99.90
2023-02-11T07:04:57.590Z,99.90
2023-02-11T07:07:25.635Z,99.90
2023-02-11T07:09:53.767Z,99.90
2023-02-11T07:12:21.851Z,99.90
2023-02-11T07:14:51.248Z,99.90
2023-02-11T07:17:19.113Z,99.90
2023-02-11T07:19:47.140Z,99.90
2023-02-11T07:22:15.255Z,99.90
2023-02-11T07:24:43.512Z,99.90
2023-02-11T07:27:11.652Z,99.90
2023-02-11T07:29:39.750Z,99.90
2023-02-11T07:32:09.352Z,99.90
2023-02-11T07:34:37.555Z,99.90
2023-02-11T07:37:05.660Z,99.90
2023-02-11T07:39:33.828Z,99.90
2023-02-11T07:42:01.895Z,99.90
2023-02-11T07:44:30.017Z,99.90
2023-02-11T07:46:58.184Z,99.90
2023-02-11T07:49:27.825Z,99.90
2023-02-11T07:51:55.891Z,99.90
2023-02-11T07:54:23.937Z,99.90
2023-02-11T07:56:52.054Z,99.90
2023-02-11T07:59:20.115Z,99.90
2023-02-11T08:01:48.230Z,99.90
2023-02-11T08:04:16.332Z,99.90
2023-02-11T08:06:46.037Z,99.90
2023-02-11T08:09:16.917Z,99.90
2023-02-11T08:11:45.453Z,99.90
2023-02-11T08:14:13.602Z,99.90
2023-02-11T08:16:42.235Z,99.90
2023-02-11T08:19:14.010Z,99.90
2023-02-11T08:21:42.809Z,99.90
2023-02-11T08:24:12.645Z,99.90
2023-02-11T08:26:41.017Z,99.90
2023-02-11T08:29:11.174Z,99.90
2023-02-11T08:31:41.350Z,99.90
2023-02-11T08:34:11.497Z,99.90
2023-02-11T08:36:41.072Z,99.90
2023-02-11T08:39:19.253Z,99.90
2023-02-11T08:41:51.132Z,99.90
2023-02-11T08:44:19.856Z,99.90
2023-02-11T08:46:48.497Z,99.90
2023-02-11T08:49:17.117Z,99.90
2023-02-11T08:51:45.769Z,99.90
2023-02-11T08:54:14.297Z,99.90
2023-02-11T08:56:42.565Z,99.90
2023-02-11T08:59:15.322Z,99.90
2023-02-11T09:01:44.142Z,99.90
2023-02-11T09:04:12.486Z,99.90
2023-02-11T09:06:40.791Z,99.90
2023-02-11T09:09:13.466Z,99.90
2023-02-11T09:11:42.901Z,99.90
2023-02-11T09:14:17.985Z,99.90
2023-02-11T09:16:46.240Z,99.00
2023-02-11T09:19:14.540Z,99.30
2023-02-11T09:21:42.631Z,99.10
2023-02-11T09:24:11.111Z,98.70
2023-02-11T09:26:39.330Z,97.30
2023-02-11T09:29:07.399Z,96.90
2023-02-11T09:31:36.977Z,96.90
2023-02-11T09:34:07.236Z,96.60
2023-02-11T09:36:38.408Z,97.40
2023-02-11T09:39:09.315Z,96.40
2023-02-11T09:41:50.272Z,95.50
2023-02-11T09:44:22.356Z,92.60
2023-02-11T09:46:57.783Z,91.30
2023-02-11T09:49:36.260Z,89.50
2023-02-11T09:52:07.140Z,91.60
2023-02-11T09:54:40.136Z,91.00
2023-02-11T09:57:22.957Z,89.40
2023-02-11T09:59:56.900Z,87.00
2023-02-11T10:02:32.349Z,85.60
2023-02-11T10:05:24.367Z,84.20
2023-02-11T10:08:02.309Z,85.40
2023-02-11T10:10:44.725Z,85.20
2023-02-11T10:13:42.560Z,84.40
2023-02-11T10:16:23.189Z,85.10
2023-02-11T10:19:16.808Z,83.10
2023-02-11T10:21:52.807Z,82.80
2023-02-11T10:24:21.704Z,83.40
2023-02-11T10:26:50.558Z,80.00
2023-02-11T10:29:31.804Z,78.60
2023-02-11T10:32:02.295Z,79.30
2023-02-11T10:34:31.791Z,81.20
2023-02-11T10:37:00.350Z,79.50
2023-02-11T10:39:29.299Z,80.90
2023-02-11T10:42:02.661Z,76.30
2023-02-11T10:44:33.688Z,78.40
2023-02-11T10:47:06.378Z,76.40
2023-02-11T10:49:39.307Z,76.10
2023-02-11T10:52:23.748Z,75.70
2023-02-11T10:54:59.991Z,75.80
2023-02-11T10:57:32.494Z,76.40
2023-02-11T11:00:05.719Z,78.10
2023-02-11T11:02:38.787Z,78.90
2023-02-11T11:05:17.519Z,78.10
2023-02-11T11:07:54.617Z,78.60
2023-02-11T11:10:37.481Z,78.50
2023-02-11T11:13:05.605Z,78.10
2023-02-11T11:15:33.753Z,77.20
2023-02-11T11:18:23.656Z,78.40
2023-02-11T11:21:00.649Z,78.50
2023-02-11T11:23:30.860Z,80.00
2023-02-11T11:26:05.341Z,78.30
2023-02-11T11:28:38.938Z,78.30
2023-02-11T11:31:13.915Z,78.60
2023-02-11T11:33:44.583Z,77.10
2023-02-11T11:36:17.540Z,77.30
2023-02-11T11:38:50.268Z,78.20
2023-02-11T11:41:25.692Z,76.20
2023-02-11T11:44:09.435Z,74.70
2023-02-11T11:46:40.073Z,75.00
2023-02-11T11:49:18.810Z,75.10
2023-02-11T11:51:54.436Z,75.00
2023-02-11T11:54:25.087Z,74.40
2023-02-11T11:57:00.343Z,75.00
2023-02-11T11:59:30.200Z,75.00
2023-02-11T12:02:19.217Z,74.40
2023-02-11T12:05:03.427Z,74.00
2023-02-11T12:07:48.648Z,75.20
2023-02-11T12:10:40.664Z,76.20
2023-02-11T12:13:26.498Z,76.40
2023-02-11T12:16:05.425Z,77.00
2023-02-11T12:18:53.095Z,78.20
2023-02-11T12:21:32.392Z,78.10
2023-02-11T12:24:12.209Z,78.30
2023-02-11T12:26:46.962Z,78.20
2023-02-11T12:29:25.115Z,78.60
2023-02-11T12:32:03.084Z,79.30
2023-02-11T12:35:04.006Z,79.40
2023-02-11T12:37:45.373Z,78.80
2023-02-11T12:40:23.750Z,79.30
2023-02-11T12:43:17.061Z,79.30
2023-02-11T12:46:01.997Z,79.00
2023-02-11T12:48:58.953Z,79.10
2023-02-11T12:51:44.821Z,78.80
2023-02-11T12:54:28.350Z,78.50
2023-02-11T12:57:04.448Z,79.00
2023-02-11T12:59:44.184Z,79.50
2023-02-11T13:02:25.600Z,79.00
2023-02-11T13:04:57.824Z,79.70
2023-02-11T13:07:31.068Z,80.70
2023-02-11T13:10:07.595Z,80.90
2023-02-11T13:12:56.324Z,81.20
2023-02-11T13:15:25.916Z,81.90
2023-02-11T13:17:58.544Z,81.60
2023-02-11T13:20:39.379Z,82.00
2023-02-11T13:23:17.170Z,82.20
2023-02-11T13:25:51.864Z,82.20
2023-02-11T13:28:36.306Z,82.30
2023-02-11T13:31:07.663Z,83.10
2023-02-11T13:33:37.490Z,83.40
2023-02-11T13:36:30.222Z,83.90
2023-02-11T13:39:01.420Z,83.80
2023-02-11T13:41:34.695Z,84.60
2023-02-11T13:44:22.256Z,84.90
2023-02-11T13:47:02.248Z,85.00
2023-02-11T13:49:37.495Z,85.40
2023-02-11T13:52:07.671Z,85.80
2023-02-11T13:54:39.180Z,86.40
2023-02-11T13:57:32.260Z,86.60
2023-02-11T14:00:09.533Z,86.90
2023-02-11T14:02:56.223Z,87.80
2023-02-11T14:05:45.436Z,87.90
2023-02-11T14:08:38.893Z,88.40
2023-02-11T14:11:27.390Z,89.10
2023-02-11T14:14:21.783Z,89.50
2023-02-11T14:17:31.785Z,90.00
2023-02-11T14:20:00.670Z,90.30
2023-02-11T14:22:31.629Z,90.40
2023-02-11T14:25:01.811Z,90.60
2023-02-11T14:27:35.451Z,90.80
2023-02-11T14:30:27.968Z,90.80
2023-02-11T14:33:14.390Z,91.00
2023-02-11T14:35:52.704Z,91.20
2023-02-11T14:38:34.055Z,91.50
2023-02-11T14:41:08.417Z,91.60
2023-02-11T14:43:39.794Z,91.80
2023-02-11T14:46:10.808Z,92.00
2023-02-11T14:48:46.790Z,92.40
2023-02-11T14:51:17.563Z,92.60
2023-02-11T14:53:49.045Z,92.80
2023-02-11T14:56:22.339Z,92.90
2023-02-11T14:58:51.900Z,93.20
2023-02-11T15:01:31.484Z,93.40
2023-02-11T15:04:02.607Z,93.40
2023-02-11T15:06:33.133Z,93.60
2023-02-11T15:09:04.903Z,93.70
2023-02-11T15:11:35.785Z,93.90
2023-02-11T15:14:10.699Z,94.20
2023-02-11T15:16:43.904Z,94.20
2023-02-11T15:19:26.727Z,94.40
2023-02-11T15:21:56.687Z,94.50
2023-02-11T15:24:27.443Z,94.90
2023-02-11T15:27:00.186Z,94.90
2023-02-11T15:29:35.532Z,95.00
2023-02-11T15:32:16.797Z,95.10
2023-02-11T15:34:48.112Z,95.20
2023-02-11T15:37:20.966Z,95.30
2023-02-11T15:39:49.506Z,95.50
2023-02-11T15:42:26.322Z,95.60
2023-02-11T15:45:12.825Z,95.70
2023-02-11T15:47:43.281Z,95.90
2023-02-11T15:50:23.075Z,96.00
2023-02-11T15:52:51.785Z,96.10
2023-02-11T15:55:21.056Z,96.20
2023-02-11T15:57:53.542Z,96.30
2023-02-11T16:00:24.556Z,96.50
2023-02-11T16:02:53.489Z,96.60
2023-02-11T16:05:34.850Z,96.70
2023-02-11T16:08:14.204Z,96.90
2023-02-11T16:10:58.289Z,96.90
2023-02-11T16:13:28.137Z,97.30
2023-02-11T16:15:57.848Z,97.30
2023-02-11T16:18:38.162Z,97.60
2023-02-11T16:21:15.736Z,97.60
2023-02-11T16:23:50.192Z,97.80
2023-02-11T16:26:26.105Z,98.00
2023-02-11T16:28:54.828Z,98.30
2023-02-11T16:31:23.126Z,98.30
2023-02-11T16:33:51.225Z,98.50
2023-02-11T16:36:20.647Z,98.70
2023-02-11T16:38:48.865Z,98.80
2023-02-11T16:41:16.915Z,98.90
2023-02-11T16:43:45.035Z,99.10
2023-02-11T16:46:15.969Z,99.10
2023-02-11T16:48:44.463Z,99.20
2023-02-11T16:51:13.177Z,99.60
2023-02-11T16:53:42.654Z,99.40
2023-02-11T16:56:16.681Z,99.40
2023-02-11T16:58:45.253Z,99.50
2023-02-11T17:01:14.309Z,99.60
2023-02-11T17:03:43.665Z,99.80
2023-02-11T17:06:12.618Z,99.90
2023-02-11T17:08:42.103Z,99.90
2023-02-11T17:11:10.178Z,99.90
2023-02-11T17:13:39.433Z,99.90
2023-02-11T17:16:12.328Z,99.90
2023-02-11T17:18:40.396Z,99.90
2023-02-11T17:21:08.786Z,99.90
2023-02-11T17:23:37.423Z,99.90
2023-02-11T17:26:07.406Z,99.90
2023-02-11T17:28:36.000Z,99.90
2023-02-11T17:31:09.305Z,99.90
2023-02-11T17:33:38.794Z,99.90
2023-02-11T17:36:07.849Z,99.90
2023-02-11T17:38:36.691Z,99.90
2023-02-11T17:41:06.789Z,99.90
2023-02-11T17:43:34.920Z,99.90
2023-02-11T17:46:06.210Z,99.90
2023-02-11T17:48:34.378Z,99.90
2023-02-11T17:51:02.469Z,99.90
2023-02-11T17:53:30.754Z,99.90
2023-02-11T17:55:58.835Z,99.90
2023-02-11T17:58:28.272Z,99.90
2023-02-11T18:00:59.421Z,99.90
2023-02-11T18:03:27.606Z,99.90
2023-02-11T18:06:00.020Z,99.90
2023-02-11T18:08:28.127Z,99.90
2023-02-11T18:10:56.338Z,99.90
2023-02-11T18:13:24.400Z,99.90
2023-02-11T18:15:54.013Z,99.90
2023-02-11T18:18:21.950Z,99.90
2023-02-11T18:20:57.565Z,99.90
2023-02-11T18:23:25.859Z,99.90
2023-02-11T18:25:54.136Z,99.90
2023-02-11T18:28:22.945Z,99.90
2023-02-11T18:30:59.473Z,99.90
2023-02-11T18:33:28.055Z,99.90
2023-02-11T18:35:56.678Z,99.90
2023-02-11T18:38:25.219Z,99.90
2023-02-11T18:40:53.414Z,99.90
2023-02-11T18:43:21.607Z,99.90
2023-02-11T18:45:51.451Z,99.90
2023-02-11T18:48:21.031Z,99.90
2023-02-11T18:50:49.077Z,99.90
2023-02-11T18:53:17.114Z,99.90
2023-02-11T18:55:46.715Z,99.90
2023-02-11T18:58:15.294Z,99.90
2023-02-11T19:00:46.216Z,99.90
2023-02-11T19:03:14.420Z,99.90
2023-02-11T19:05:44.928Z,99.90
2023-02-11T19:08:13.382Z,99.90
2023-02-11T19:10:42.645Z,99.90
2023-02-11T19:13:11.161Z,99.90
2023-02-11T19:15:42.134Z,99.90
2023-02-11T19:18:10.692Z,99.90
2023-02-11T19:20:40.715Z,99.90
2023-02-11T19:23:10.389Z,99.90
2023-02-11T19:25:38.287Z,99.90
2023-02-11T19:28:06.553Z,99.90
2023-02-11T19:30:36.799Z,99.90
2023-02-11T19:33:05.235Z,99.90
2023-02-11T19:35:35.585Z,99.90
2023-02-11T19:38:04.106Z,99.90
2023-02-11T19:40:33.793Z,99.90
2023-02-11T19:43:01.675Z,99.90
2023-02-11T19:45:29.711Z,99.90
2023-02-11T19:47:58.564Z,99.90
2023-02-11T19:50:27.281Z,99.90
2023-02-11T19:52:55.958Z,99.90
2023-02-11T19:55:24.006Z,99.90
2023-02-11T19:57:53.442Z,99.90
2023-02-11T20:00:22.516Z,99.90
2023-02-11T20:02:50.657Z,99.90
2023-02-11T20:05:18.940Z,99.90
2023-02-11T20:07:46.984Z,99.90
2023-02-11T20:10:15.060Z,99.90
2023-02-11T20:12:43.136Z,99.90
2023-02-11T20:15:12.890Z,99.90
2023-02-11T20:17:40.971Z,99.90
2023-02-11T20:20:10.161Z,99.90
2023-02-11T20:22:38.310Z,99.90
2023-02-11T20:25:07.322Z,99.90
2023-02-11T20:27:35.444Z,99.90
2023-02-11T20:30:03.550Z,99.90
2023-02-11T20:32:37.902Z,99.90
2023-02-11T20:35:07.192Z,99.90
2023-02-11T20:37:35.645Z,99.90
2023-02-11T20:40:03.861Z,99.90
2023-02-11T20:42:31.874Z,99.90
2023-02-11T20:44:59.900Z,99.90
2023-02-11T20:47:28.066Z,99.90
2023-02-11T20:49:57.523Z,99.90
2023-02-11T20:52:25.538Z,99.90
2023-02-11T20:54:53.615Z,99.90
2023-02-11T20:57:21.746Z,99.90
2023-02-11T20:59:49.982Z,99.90
2023-02-11T21:02:18.040Z,99.90
2023-02-11T21:04:46.077Z,99.90
2023-02-11T21:07:15.556Z,99.90
2023-02-11T21:09:43.628Z,99.90
2023-02-11T21:12:11.750Z,99.90
2023-02-11T21:14:39.855Z,99.90
2023-02-11T21:17:08.375Z,99.90
2023-02-11T21:19:36.457Z,99.90
2023-02-11T21:22:04.655Z,99.90
2023-02-11T21:24:34.152Z,99.90
2023-02-11T21:27:02.986Z,99.90
2023-02-11T21:29:31.052Z,99.90
2023-02-11T21:31:59.132Z,99.90
2023-02-11T21:34:27.280Z,99.90
2023-02-11T21:36:55.354Z,99.90
2023-02-11T21:39:23.612Z,99.90
2023-02-11T21:41:53.269Z,99.90
2023-02-11T21:44:21.320Z,99.90
2023-02-11T21:46:49.569Z,99.90
2023-02-11T21:49:19.658Z,99.90
2023-02-11T21:51:47.740Z,99.90
2023-02-11T21:54:18.611Z,99.90
2023-02-11T21:56:46.712Z,99.90
2023-02-11T21:59:16.451Z,99.90
2023-02-11T22:01:47.033Z,99.90
2023-02-11T22:04:15.147Z,99.90
2023-02-11T22:06:43.221Z,99.90
2023-02-11T22:09:11.804Z,99.90
2023-02-11T22:11:39.891Z,99.90
2023-02-11T22:14:08.264Z,99.90
2023-02-11T22:16:37.832Z,99.90
2023-02-11T22:19:07.369Z,99.90
2023-02-11T22:21:35.444Z,99.90
2023-02-11T22:24:03.502Z,99.90
2023-02-11T22:26:31.613Z,99.90
2023-02-11T22:28:59.695Z,99.90
2023-02-11T22:31:30.953Z,99.90
2023-02-11T22:34:01.334Z,99.90
2023-02-11T22:36:31.284Z,99.90
2023-02-11T22:39:01.860Z,99.90
2023-02-11T22:41:30.077Z,99.90
2023-02-11T22:43:58.232Z,99.90
2023-02-11T22:46:26.807Z,99.90
2023-02-11T22:48:54.982Z,99.90
2023-02-11T22:51:26.219Z,99.90
2023-02-11T22:53:55.673Z,99.90
2023-02-11T22:56:24.128Z,99.90
2023-02-11T22:58:53.842Z,99.90
2023-02-11T23:01:22.040Z,99.90
2023-02-11T23:03:50.383Z,99.90
2023-02-11T23:06:18.727Z,99.90
2023-02-11T23:08:48.911Z,99.90
2023-02-11T23:11:19.582Z,39.10
2023-02-11T23:13:49.493Z,37.00
2023-02-11T23:16:19.899Z,34.40
2023-02-11T23:18:49.464Z,37.20
2023-02-11T23:21:18.684Z,31.60
2023-02-11T23:23:48.732Z,31.80
2023-02-11T23:26:18.950Z,35.40
2023-02-11T23:28:47.631Z,38.30
2023-02-11T23:31:21.105Z,43.90
2023-02-11T23:33:49.573Z,43.60
2023-02-11T23:36:19.237Z,51.30
2023-02-11T23:38:49.000Z,58.20
2023-02-11T23:41:17.815Z,63.70
2023-02-11T23:43:49.681Z,68.30
2023-02-11T23:46:17.771Z,70.70
2023-02-11T23:48:46.062Z,70.60
2023-02-11T23:51:14.284Z,66.80
2023-02-11T23:53:42.645Z,72.70
2023-02-11T23:56:16.064Z,72.20
2023-02-11T23:58:44.735Z,73.30
